sensor_id;sensor_type;location;lat;lon;timestamp;temperature;humidity
4081;DHT22;2055;50.074;8.436;2024-02-23T00:01:36;6.90;99.90
4081;DHT22;2055;50.074;8.436;2024-02-23T00:04:02;6.90;99.90
4081;DHT22;2055;50.074;8.436;2024-02-23T00:06:28;6.90;99.90
4081;DHT22;2055;50.074;8.436;2024-02-23T00:08:54;6.90;99.90
4081;DHT22;2055;50.074;8.436;2024-02-23T00:11:20;9.20;99.90
4081;DHT22;2055;50.074;8.436;2024-02-23T00:13:46;6.90;99.90
4081;DHT22;2055;50.074;8.436;2024-02-23T00:16:12;6.90;99.90
4081;DHT22;2055;50.074;8.436;2024-02-23T00:18:38;6.80;99.90
4081;DHT22;2055;50.074;8.436;2024-02-23T00:21:04;6.80;99.90
4081;DHT22;2055;50.074;8.436;2024-02-23T00:23:29;6.80;99.90
4081;DHT22;2055;50.074;8.436;2024-02-23T00:25:55;6.80;99.90
4081;DHT22;2055;50.074;8.436;2024-02-23T00:28:21;6.80;99.90
4081;DHT22;2055;50.074;8.436;2024-02-23T00:30:46;6.70;99.90
4081;DHT22;2055;50.074;8.436;2024-02-23T00:33:12;6.50;99.90
4081;DHT22;2055;50.074;8.436;2024-02-23T00:35:38;6.70;99.90
4081;DHT22;2055;50.074;8.436;2024-02-23T00:38:04;6.80;99.90
4081;DHT22;2055;50.074;8.436;2024-02-23T00:40:29;6.60;99.90
4081;DHT22;2055;50.074;8.436;2024-02-23T00:42:55;6.60;99.90
4081;DHT22;2055;50.074;8.436;2024-02-23T00:45:21;6.60;99.90
4081;DHT22;2055;50.074;8.436;2024-02-23T00:47:47;6.60;99.90
4081;DHT22;2055;50.074;8.436;2024-02-23T00:50:13;9.30;99.90
4081;DHT22;2055;50.074;8.436;2024-02-23T00:52:39;6.50;99.90
4081;DHT22;2055;50.074;8.436;2024-02-23T00:55:04;6.50;99.90
4081;DHT22;2055;50.074;8.436;2024-02-23T00:57:30;6.70;99.90
4081;DHT22;2055;50.074;8.436;2024-02-23T00:59:57;6.60;99.90
4081;DHT22;2055;50.074;8.436;2024-02-23T01:02:22;6.60;99.90
4081;DHT22;2055;50.074;8.436;2024-02-23T01:04:48;6.60;99.90
4081;DHT22;2055;50.074;8.436;2024-02-23T01:07:13;6.40;99.90
4081;DHT22;2055;50.074;8.436;2024-02-23T01:09:39;6.30;99.90
4081;DHT22;2055;50.074;8.436;2024-02-23T01:12:05;6.10;99.90
4081;DHT22;2055;50.074;8.436;2024-02-23T01:14:30;6.20;99.90
4081;DHT22;2055;50.074;8.436;2024-02-23T01:16:56;6.00;99.90
4081;DHT22;2055;50.074;8.436;2024-02-23T01:19:22;6.00;99.90
4081;DHT22;2055;50.074;8.436;2024-02-23T01:21:47;5.90;99.90
4081;DHT22;2055;50.074;8.436;2024-02-23T01:24:14;5.90;99.90
4081;DHT22;2055;50.074;8.436;2024-02-23T01:26:39;5.90;99.90
4081;DHT22;2055;50.074;8.436;2024-02-23T01:29:06;5.90;99.90
4081;DHT22;2055;50.074;8.436;2024-02-23T01:31:32;6.10;99.90
4081;DHT22;2055;50.074;8.436;2024-02-23T01:33:57;6.10;99.90
4081;DHT22;2055;50.074;8.436;2024-02-23T01:36:23;6.00;99.90
4081;DHT22;2055;50.074;8.436;2024-02-23T01:38:48;6.10;99.90
4081;DHT22;2055;50.074;8.436;2024-02-23T01:41:14;6.10;99.90
4081;DHT22;2055;50.074;8.436;2024-02-23T01:43:39;5.90;99.90
4081;DHT22;2055;50.074;8.436;2024-02-23T01:46:05;5.70;99.90
4081;DHT22;2055;50.074;8.436;2024-02-23T01:48:32;5.70;99.90
4081;DHT22;2055;50.074;8.436;2024-02-23T01:50:58;5.80;99.90
4081;DHT22;2055;50.074;8.436;2024-02-23T01:53:24;5.50;99.90
4081;DHT22;2055;50.074;8.436;2024-02-23T01:55:51;9.20;99.90
4081;DHT22;2055;50.074;8.436;2024-02-23T01:58:18;5.60;99.90
4081;DHT22;2055;50.074;8.436;2024-02-23T02:00:45;5.50;99.90
4081;DHT22;2055;50.074;8.436;2024-02-23T02:03:10;5.60;99.90
4081;DHT22;2055;50.074;8.436;2024-02-23T02:05:37;5.40;99.90
4081;DHT22;2055;50.074;8.436;2024-02-23T02:08:03;5.30;99.90
4081;DHT22;2055;50.074;8.436;2024-02-23T02:10:29;5.40;99.90
4081;DHT22;2055;50.074;8.436;2024-02-23T02:12:55;5.30;99.90
4081;DHT22;2055;50.074;8.436;2024-02-23T02:15:20;5.20;99.90
4081;DHT22;2055;50.074;8.436;2024-02-23T02:17:47;5.20;99.90
4081;DHT22;2055;50.074;8.436;2024-02-23T02:20:13;5.20;99.90
4081;DHT22;2055;50.074;8.436;2024-02-23T02:22:39;5.20;1.00
4081;DHT22;2055;50.074;8.436;2024-02-23T02:25:06;5.00;99.90
4081;DHT22;2055;50.074;8.436;2024-02-23T02:27:31;5.20;1.00
4081;DHT22;2055;50.074;8.436;2024-02-23T02:29:57;5.10;1.00
4081;DHT22;2055;50.074;8.436;2024-02-23T02:32:23;5.10;99.90
4081;DHT22;2055;50.074;8.436;2024-02-23T02:34:49;5.10;1.00
4081;DHT22;2055;50.074;8.436;2024-02-23T02:37:14;5.00;99.90
4081;DHT22;2055;50.074;8.436;2024-02-23T02:39:40;5.10;1.00
4081;DHT22;2055;50.074;8.436;2024-02-23T02:42:06;5.00;1.00
4081;DHT22;2055;50.074;8.436;2024-02-23T02:44:31;5.20;1.00
4081;DHT22;2055;50.074;8.436;2024-02-23T02:46:57;5.40;1.00
4081;DHT22;2055;50.074;8.436;2024-02-23T02:49:23;5.50;1.00
4081;DHT22;2055;50.074;8.436;2024-02-23T02:51:49;5.40;1.00
4081;DHT22;2055;50.074;8.436;2024-02-23T02:54:15;5.50;99.90
4081;DHT22;2055;50.074;8.436;2024-02-23T02:56:43;8.60;99.90
4081;DHT22;2055;50.074;8.436;2024-02-23T02:59:11;5.20;99.90
4081;DHT22;2055;50.074;8.436;2024-02-23T03:01:37;5.00;99.90
4081;DHT22;2055;50.074;8.436;2024-02-23T03:04:02;5.10;99.90
4081;DHT22;2055;50.074;8.436;2024-02-23T03:06:28;5.10;99.90
4081;DHT22;2055;50.074;8.436;2024-02-23T03:08:53;5.00;99.90
4081;DHT22;2055;50.074;8.436;2024-02-23T03:11:19;5.10;99.90
4081;DHT22;2055;50.074;8.436;2024-02-23T03:13:44;5.30;99.90
4081;DHT22;2055;50.074;8.436;2024-02-23T03:16:17;5.40;99.90
4081;DHT22;2055;50.074;8.436;2024-02-23T03:18:43;5.60;99.90
4081;DHT22;2055;50.074;8.436;2024-02-23T03:21:08;5.60;55.20
4081;DHT22;2055;50.074;8.436;2024-02-23T03:23:35;5.80;1.00
4081;DHT22;2055;50.074;8.436;2024-02-23T03:26:01;5.10;1.00
4081;DHT22;2055;50.074;8.436;2024-02-23T03:28:27;5.80;1.00
4081;DHT22;2055;50.074;8.436;2024-02-23T03:30:53;5.70;1.00
4081;DHT22;2055;50.074;8.436;2024-02-23T03:33:18;5.50;1.00
4081;DHT22;2055;50.074;8.436;2024-02-23T03:35:44;5.50;1.00
4081;DHT22;2055;50.074;8.436;2024-02-23T03:38:09;5.40;1.00
4081;DHT22;2055;50.074;8.436;2024-02-23T03:40:35;5.30;1.00
4081;DHT22;2055;50.074;8.436;2024-02-23T03:43:01;5.30;1.00
4081;DHT22;2055;50.074;8.436;2024-02-23T03:45:27;5.20;1.00
4081;DHT22;2055;50.074;8.436;2024-02-23T03:47:53;5.00;1.00
4081;DHT22;2055;50.074;8.436;2024-02-23T03:50:18;4.90;1.00
4081;DHT22;2055;50.074;8.436;2024-02-23T03:52:44;5.10;1.00
4081;DHT22;2055;50.074;8.436;2024-02-23T03:55:10;4.90;1.00
4081;DHT22;2055;50.074;8.436;2024-02-23T03:57:35;4.60;1.00
4081;DHT22;2055;50.074;8.436;2024-02-23T04:00:02;4.80;1.00
4081;DHT22;2055;50.074;8.436;2024-02-23T04:02:28;4.80;1.00
4081;DHT22;2055;50.074;8.436;2024-02-23T04:04:54;4.70;1.00
4081;DHT22;2055;50.074;8.436;2024-02-23T04:07:20;4.50;1.00
4081;DHT22;2055;50.074;8.436;2024-02-23T04:09:46;4.50;1.00
4081;DHT22;2055;50.074;8.436;2024-02-23T04:12:20;4.90;1.00
4081;DHT22;2055;50.074;8.436;2024-02-23T04:14:46;6.40;1.00
4081;DHT22;2055;50.074;8.436;2024-02-23T04:17:18;4.90;1.00
4081;DHT22;2055;50.074;8.436;2024-02-23T04:19:44;4.90;1.00
4081;DHT22;2055;50.074;8.436;2024-02-23T04:22:10;5.10;1.00
4081;DHT22;2055;50.074;8.436;2024-02-23T04:24:39;5.00;1.00
4081;DHT22;2055;50.074;8.436;2024-02-23T04:27:06;8.10;1.00
4081;DHT22;2055;50.074;8.436;2024-02-23T04:29:32;5.10;1.00
4081;DHT22;2055;50.074;8.436;2024-02-23T04:31:59;5.10;1.00
4081;DHT22;2055;50.074;8.436;2024-02-23T04:34:25;5.10;1.00
4081;DHT22;2055;50.074;8.436;2024-02-23T04:36:50;5.20;1.00
4081;DHT22;2055;50.074;8.436;2024-02-23T04:39:16;5.50;1.00
4081;DHT22;2055;50.074;8.436;2024-02-23T04:41:41;5.10;1.00
4081;DHT22;2055;50.074;8.436;2024-02-23T04:44:07;4.80;1.00
4081;DHT22;2055;50.074;8.436;2024-02-23T04:46:32;6.00;1.00
4081;DHT22;2055;50.074;8.436;2024-02-23T04:48:59;4.50;1.00
4081;DHT22;2055;50.074;8.436;2024-02-23T04:51:25;4.40;1.00
4081;DHT22;2055;50.074;8.436;2024-02-23T04:53:51;4.30;1.00
4081;DHT22;2055;50.074;8.436;2024-02-23T04:56:16;4.20;1.00
4081;DHT22;2055;50.074;8.436;2024-02-23T04:58:42;4.20;1.00
4081;DHT22;2055;50.074;8.436;2024-02-23T05:01:08;4.10;1.00
4081;DHT22;2055;50.074;8.436;2024-02-23T05:03:34;4.10;1.00
4081;DHT22;2055;50.074;8.436;2024-02-23T05:06:00;4.00;1.00
4081;DHT22;2055;50.074;8.436;2024-02-23T05:08:25;4.00;1.00
4081;DHT22;2055;50.074;8.436;2024-02-23T05:10:53;4.00;1.00
4081;DHT22;2055;50.074;8.436;2024-02-23T05:13:18;3.90;1.00
4081;DHT22;2055;50.074;8.436;2024-02-23T05:15:44;3.70;1.00
4081;DHT22;2055;50.074;8.436;2024-02-23T05:18:10;3.80;1.00
4081;DHT22;2055;50.074;8.436;2024-02-23T05:20:35;3.70;1.00
4081;DHT22;2055;50.074;8.436;2024-02-23T05:23:01;3.60;1.00
4081;DHT22;2055;50.074;8.436;2024-02-23T05:25:26;3.50;99.90
4081;DHT22;2055;50.074;8.436;2024-02-23T05:27:52;3.40;99.90
4081;DHT22;2055;50.074;8.436;2024-02-23T05:30:18;3.40;1.00
4081;DHT22;2055;50.074;8.436;2024-02-23T05:32:43;3.30;1.00
4081;DHT22;2055;50.074;8.436;2024-02-23T05:35:09;3.40;1.00
4081;DHT22;2055;50.074;8.436;2024-02-23T05:37:35;3.50;1.00
4081;DHT22;2055;50.074;8.436;2024-02-23T05:40:01;3.50;1.00
4081;DHT22;2055;50.074;8.436;2024-02-23T05:42:29;3.70;1.00
4081;DHT22;2055;50.074;8.436;2024-02-23T05:44:55;3.70;1.00
4081;DHT22;2055;50.074;8.436;2024-02-23T05:47:20;3.60;1.00
4081;DHT22;2055;50.074;8.436;2024-02-23T05:49:47;3.70;1.00
4081;DHT22;2055;50.074;8.436;2024-02-23T05:52:12;3.60;1.00
4081;DHT22;2055;50.074;8.436;2024-02-23T05:54:38;3.60;99.90
4081;DHT22;2055;50.074;8.436;2024-02-23T05:57:04;3.60;99.90
4081;DHT22;2055;50.074;8.436;2024-02-23T05:59:30;3.70;99.90
4081;DHT22;2055;50.074;8.436;2024-02-23T06:01:55;3.80;99.90
4081;DHT22;2055;50.074;8.436;2024-02-23T06:04:24;3.90;1.00
4081;DHT22;2055;50.074;8.436;2024-02-23T06:06:50;4.00;99.90
4081;DHT22;2055;50.074;8.436;2024-02-23T06:09:15;4.00;99.90
4081;DHT22;2055;50.074;8.436;2024-02-23T06:11:41;4.00;99.90
4081;DHT22;2055;50.074;8.436;2024-02-23T06:14:07;4.10;1.00
4081;DHT22;2055;50.074;8.436;2024-02-23T06:16:33;4.10;99.90
4081;DHT22;2055;50.074;8.436;2024-02-23T06:18:59;4.10;1.00
4081;DHT22;2055;50.074;8.436;2024-02-23T06:21:25;4.10;99.90
4081;DHT22;2055;50.074;8.436;2024-02-23T06:23:50;4.10;99.90
4081;DHT22;2055;50.074;8.436;2024-02-23T06:26:16;4.00;99.90
4081;DHT22;2055;50.074;8.436;2024-02-23T06:28:42;4.20;99.90
4081;DHT22;2055;50.074;8.436;2024-02-23T06:31:09;4.10;99.90
4081;DHT22;2055;50.074;8.436;2024-02-23T06:33:35;4.20;99.90
4081;DHT22;2055;50.074;8.436;2024-02-23T06:36:01;4.30;99.90
4081;DHT22;2055;50.074;8.436;2024-02-23T06:38:27;4.40;99.90
4081;DHT22;2055;50.074;8.436;2024-02-23T06:40:53;4.40;99.90
4081;DHT22;2055;50.074;8.436;2024-02-23T06:43:20;4.50;99.90
4081;DHT22;2055;50.074;8.436;2024-02-23T06:45:46;4.90;99.90
4081;DHT22;2055;50.074;8.436;2024-02-23T06:48:11;4.60;99.90
4081;DHT22;2055;50.074;8.436;2024-02-23T06:50:37;4.70;99.90
4081;DHT22;2055;50.074;8.436;2024-02-23T06:53:03;4.90;99.90
4081;DHT22;2055;50.074;8.436;2024-02-23T06:55:28;5.10;99.90
4081;DHT22;2055;50.074;8.436;2024-02-23T06:57:54;5.20;99.90
4081;DHT22;2055;50.074;8.436;2024-02-23T07:00:22;5.20;99.90
4081;DHT22;2055;50.074;8.436;2024-02-23T07:02:48;5.30;99.90
4081;DHT22;2055;50.074;8.436;2024-02-23T07:05:13;5.50;99.90
4081;DHT22;2055;50.074;8.436;2024-02-23T07:07:40;5.30;99.90
4081;DHT22;2055;50.074;8.436;2024-02-23T07:10:07;5.10;99.90
4081;DHT22;2055;50.074;8.436;2024-02-23T07:12:32;5.00;99.90
4081;DHT22;2055;50.074;8.436;2024-02-23T07:14:58;4.90;99.90
4081;DHT22;2055;50.074;8.436;2024-02-23T07:17:24;4.90;99.90
4081;DHT22;2055;50.074;8.436;2024-02-23T07:19:49;5.00;99.90
4081;DHT22;2055;50.074;8.436;2024-02-23T07:22:16;5.10;99.90
4081;DHT22;2055;50.074;8.436;2024-02-23T07:24:48;5.00;99.90
4081;DHT22;2055;50.074;8.436;2024-02-23T07:27:14;5.00;99.90
4081;DHT22;2055;50.074;8.436;2024-02-23T07:29:40;7.90;99.90
4081;DHT22;2055;50.074;8.436;2024-02-23T07:32:06;5.00;99.90
4081;DHT22;2055;50.074;8.436;2024-02-23T07:34:31;5.10;99.90
4081;DHT22;2055;50.074;8.436;2024-02-23T07:36:57;5.30;99.90
4081;DHT22;2055;50.074;8.436;2024-02-23T07:39:23;5.40;99.90
4081;DHT22;2055;50.074;8.436;2024-02-23T07:41:49;5.60;99.90
4081;DHT22;2055;50.074;8.436;2024-02-23T07:44:14;5.70;99.90
4081;DHT22;2055;50.074;8.436;2024-02-23T07:46:40;5.90;99.90
4081;DHT22;2055;50.074;8.436;2024-02-23T07:49:07;6.00;99.90
4081;DHT22;2055;50.074;8.436;2024-02-23T07:51:32;6.20;99.90
4081;DHT22;2055;50.074;8.436;2024-02-23T07:53:58;6.30;99.90
4081;DHT22;2055;50.074;8.436;2024-02-23T07:56:23;6.10;99.90
4081;DHT22;2055;50.074;8.436;2024-02-23T07:58:49;6.20;99.90
4081;DHT22;2055;50.074;8.436;2024-02-23T08:01:15;6.30;99.90
4081;DHT22;2055;50.074;8.436;2024-02-23T08:03:41;6.40;99.90
4081;DHT22;2055;50.074;8.436;2024-02-23T08:06:07;6.30;99.90
4081;DHT22;2055;50.074;8.436;2024-02-23T08:08:32;6.40;99.90
4081;DHT22;2055;50.074;8.436;2024-02-23T08:11:03;8.60;99.90
4081;DHT22;2055;50.074;8.436;2024-02-23T08:13:29;6.50;99.90
4081;DHT22;2055;50.074;8.436;2024-02-23T08:15:55;6.50;99.90
4081;DHT22;2055;50.074;8.436;2024-02-23T08:18:20;6.60;99.90
4081;DHT22;2055;50.074;8.436;2024-02-23T08:20:47;6.60;99.90
4081;DHT22;2055;50.074;8.436;2024-02-23T08:23:13;6.80;99.90
4081;DHT22;2055;50.074;8.436;2024-02-23T08:25:39;6.80;99.90
4081;DHT22;2055;50.074;8.436;2024-02-23T08:28:04;6.80;99.90
4081;DHT22;2055;50.074;8.436;2024-02-23T08:30:30;6.80;99.90
4081;DHT22;2055;50.074;8.436;2024-02-23T08:32:55;6.70;99.90
4081;DHT22;2055;50.074;8.436;2024-02-23T08:35:21;6.80;99.90
4081;DHT22;2055;50.074;8.436;2024-02-23T08:37:46;6.80;99.90
4081;DHT22;2055;50.074;8.436;2024-02-23T08:40:12;6.80;99.90
4081;DHT22;2055;50.074;8.436;2024-02-23T08:42:38;6.70;99.90
4081;DHT22;2055;50.074;8.436;2024-02-23T08:45:04;6.80;99.90
4081;DHT22;2055;50.074;8.436;2024-02-23T08:47:29;6.90;99.90
4081;DHT22;2055;50.074;8.436;2024-02-23T08:49:59;6.90;99.90
4081;DHT22;2055;50.074;8.436;2024-02-23T08:52:24;7.00;99.90
4081;DHT22;2055;50.074;8.436;2024-02-23T08:54:51;7.10;99.90
4081;DHT22;2055;50.074;8.436;2024-02-23T08:57:16;7.10;99.90
4081;DHT22;2055;50.074;8.436;2024-02-23T08:59:45;6.80;99.90
4081;DHT22;2055;50.074;8.436;2024-02-23T09:02:11;6.80;99.90
4081;DHT22;2055;50.074;8.436;2024-02-23T09:04:36;6.70;99.90
4081;DHT22;2055;50.074;8.436;2024-02-23T09:07:02;6.50;99.90
4081;DHT22;2055;50.074;8.436;2024-02-23T09:09:28;6.60;99.90
4081;DHT22;2055;50.074;8.436;2024-02-23T09:11:54;6.50;99.90
4081;DHT22;2055;50.074;8.436;2024-02-23T09:14:19;6.70;99.90
4081;DHT22;2055;50.074;8.436;2024-02-23T09:16:45;6.80;99.90
4081;DHT22;2055;50.074;8.436;2024-02-23T09:19:16;7.00;99.90
4081;DHT22;2055;50.074;8.436;2024-02-23T09:21:42;6.90;99.90
4081;DHT22;2055;50.074;8.436;2024-02-23T09:24:07;9.10;99.90
4081;DHT22;2055;50.074;8.436;2024-02-23T09:26:33;7.20;99.90
4081;DHT22;2055;50.074;8.436;2024-02-23T09:28:59;7.10;99.90
4081;DHT22;2055;50.074;8.436;2024-02-23T09:31:25;7.60;99.90
4081;DHT22;2055;50.074;8.436;2024-02-23T09:33:56;7.90;99.90
4081;DHT22;2055;50.074;8.436;2024-02-23T09:36:22;7.70;99.90
4081;DHT22;2055;50.074;8.436;2024-02-23T09:38:47;7.60;99.90
4081;DHT22;2055;50.074;8.436;2024-02-23T09:41:21;7.40;99.90
4081;DHT22;2055;50.074;8.436;2024-02-23T09:43:47;7.70;99.90
4081;DHT22;2055;50.074;8.436;2024-02-23T09:46:15;7.80;99.90
4081;DHT22;2055;50.074;8.436;2024-02-23T09:48:42;7.80;99.90
4081;DHT22;2055;50.074;8.436;2024-02-23T09:51:10;8.10;99.90
4081;DHT22;2055;50.074;8.436;2024-02-23T09:53:37;8.20;99.90
4081;DHT22;2055;50.074;8.436;2024-02-23T09:56:04;8.30;99.90
4081;DHT22;2055;50.074;8.436;2024-02-23T09:58:31;8.10;99.90
4081;DHT22;2055;50.074;8.436;2024-02-23T10:00:58;8.50;99.90
4081;DHT22;2055;50.074;8.436;2024-02-23T10:03:27;9.70;99.90
4081;DHT22;2055;50.074;8.436;2024-02-23T10:05:57;8.60;99.90
4081;DHT22;2055;50.074;8.436;2024-02-23T10:08:22;8.80;99.90
4081;DHT22;2055;50.074;8.436;2024-02-23T10:10:48;8.60;99.90
4081;DHT22;2055;50.074;8.436;2024-02-23T10:13:24;8.60;99.90
4081;DHT22;2055;50.074;8.436;2024-02-23T10:15:53;8.40;99.90
4081;DHT22;2055;50.074;8.436;2024-02-23T10:18:19;8.60;99.90
4081;DHT22;2055;50.074;8.436;2024-02-23T10:20:47;12.00;99.90
4081;DHT22;2055;50.074;8.436;2024-02-23T10:23:12;7.00;99.90
4081;DHT22;2055;50.074;8.436;2024-02-23T10:25:38;8.20;99.90
4081;DHT22;2055;50.074;8.436;2024-02-23T10:28:05;9.00;99.90
4081;DHT22;2055;50.074;8.436;2024-02-23T10:30:31;8.00;99.90
4081;DHT22;2055;50.074;8.436;2024-02-23T10:32:58;7.90;99.90
4081;DHT22;2055;50.074;8.436;2024-02-23T10:35:24;8.10;99.90
4081;DHT22;2055;50.074;8.436;2024-02-23T10:37:51;8.30;99.90
4081;DHT22;2055;50.074;8.436;2024-02-23T10:40:19;9.10;99.90
4081;DHT22;2055;50.074;8.436;2024-02-23T10:42:46;8.60;99.90
4081;DHT22;2055;50.074;8.436;2024-02-23T10:45:21;9.10;99.90
4081;DHT22;2055;50.074;8.436;2024-02-23T10:47:50;9.20;99.90
4081;DHT22;2055;50.074;8.436;2024-02-23T10:50:17;9.90;99.90
4081;DHT22;2055;50.074;8.436;2024-02-23T10:52:45;12.20;99.90
4081;DHT22;2055;50.074;8.436;2024-02-23T10:55:13;10.10;99.90
4081;DHT22;2055;50.074;8.436;2024-02-23T10:57:39;13.10;99.90
4081;DHT22;2055;50.074;8.436;2024-02-23T11:00:07;9.40;99.90
4081;DHT22;2055;50.074;8.436;2024-02-23T11:02:40;9.50;99.90
4081;DHT22;2055;50.074;8.436;2024-02-23T11:05:07;9.30;99.90
4081;DHT22;2055;50.074;8.436;2024-02-23T11:07:38;9.00;99.90
4081;DHT22;2055;50.074;8.436;2024-02-23T11:10:05;8.80;99.90
4081;DHT22;2055;50.074;8.436;2024-02-23T11:12:33;8.90;99.90
4081;DHT22;2055;50.074;8.436;2024-02-23T11:14:59;8.60;99.90
4081;DHT22;2055;50.074;8.436;2024-02-23T11:17:27;8.60;99.90
4081;DHT22;2055;50.074;8.436;2024-02-23T11:19:54;8.50;99.90
4081;DHT22;2055;50.074;8.436;2024-02-23T11:22:29;8.10;99.90
4081;DHT22;2055;50.074;8.436;2024-02-23T11:25:06;7.80;99.90
4081;DHT22;2055;50.074;8.436;2024-02-23T11:27:34;7.70;1.00
4081;DHT22;2055;50.074;8.436;2024-02-23T11:30:08;10.00;1.00
4081;DHT22;2055;50.074;8.436;2024-02-23T11:32:43;5.70;1.00
4081;DHT22;2055;50.074;8.436;2024-02-23T11:35:11;5.70;99.90
4081;DHT22;2055;50.074;8.436;2024-02-23T11:37:49;6.40;1.00
4081;DHT22;2055;50.074;8.436;2024-02-23T11:40:22;7.30;1.00
4081;DHT22;2055;50.074;8.436;2024-02-23T11:42:48;6.90;1.00
4081;DHT22;2055;50.074;8.436;2024-02-23T11:45:13;6.50;98.70
4081;DHT22;2055;50.074;8.436;2024-02-23T11:47:39;8.00;99.90
4081;DHT22;2055;50.074;8.436;2024-02-23T11:50:08;6.20;1.00
4081;DHT22;2055;50.074;8.436;2024-02-23T11:52:35;6.00;1.00
4081;DHT22;2055;50.074;8.436;2024-02-23T11:55:01;7.40;1.00
4081;DHT22;2055;50.074;8.436;2024-02-23T11:57:27;6.00;1.00
4081;DHT22;2055;50.074;8.436;2024-02-23T11:59:54;6.10;25.20
4081;DHT22;2055;50.074;8.436;2024-02-23T12:02:19;6.30;58.80
4081;DHT22;2055;50.074;8.436;2024-02-23T12:04:45;6.20;82.90
4081;DHT22;2055;50.074;8.436;2024-02-23T12:07:11;6.10;52.80
4081;DHT22;2055;50.074;8.436;2024-02-23T12:09:37;6.20;45.00
4081;DHT22;2055;50.074;8.436;2024-02-23T12:12:06;6.20;54.00
4081;DHT22;2055;50.074;8.436;2024-02-23T12:14:34;6.50;67.40
4081;DHT22;2055;50.074;8.436;2024-02-23T12:17:02;6.30;39.20
4081;DHT22;2055;50.074;8.436;2024-02-23T12:19:29;6.40;36.70
4081;DHT22;2055;50.074;8.436;2024-02-23T12:22:02;6.90;41.10
4081;DHT22;2055;50.074;8.436;2024-02-23T12:24:29;6.90;16.90
4081;DHT22;2055;50.074;8.436;2024-02-23T12:26:55;6.70;1.00
4081;DHT22;2055;50.074;8.436;2024-02-23T12:29:21;7.00;1.00
4081;DHT22;2055;50.074;8.436;2024-02-23T12:31:47;7.20;1.00
4081;DHT22;2055;50.074;8.436;2024-02-23T12:34:13;7.30;1.00
4081;DHT22;2055;50.074;8.436;2024-02-23T12:36:39;7.70;1.00
4081;DHT22;2055;50.074;8.436;2024-02-23T12:39:05;7.70;1.00
4081;DHT22;2055;50.074;8.436;2024-02-23T12:41:31;7.80;1.00
4081;DHT22;2055;50.074;8.436;2024-02-23T12:43:56;7.80;99.90
4081;DHT22;2055;50.074;8.436;2024-02-23T12:46:22;8.00;99.90
4081;DHT22;2055;50.074;8.436;2024-02-23T12:48:49;8.10;58.60
4081;DHT22;2055;50.074;8.436;2024-02-23T12:51:15;8.00;1.00
4081;DHT22;2055;50.074;8.436;2024-02-23T12:53:41;8.10;1.00
4081;DHT22;2055;50.074;8.436;2024-02-23T12:56:09;11.30;1.00
4081;DHT22;2055;50.074;8.436;2024-02-23T12:58:35;8.20;99.90
4081;DHT22;2055;50.074;8.436;2024-02-23T13:01:01;8.20;99.90
4081;DHT22;2055;50.074;8.436;2024-02-23T13:03:27;8.30;99.90
4081;DHT22;2055;50.074;8.436;2024-02-23T13:05:55;8.40;99.90
4081;DHT22;2055;50.074;8.436;2024-02-23T13:08:22;8.70;99.90
4081;DHT22;2055;50.074;8.436;2024-02-23T13:10:48;9.00;99.90
4081;DHT22;2055;50.074;8.436;2024-02-23T13:13:14;9.10;99.90
4081;DHT22;2055;50.074;8.436;2024-02-23T13:15:44;9.30;99.90
4081;DHT22;2055;50.074;8.436;2024-02-23T13:18:09;9.30;99.90
4081;DHT22;2055;50.074;8.436;2024-02-23T13:20:36;12.50;99.90
4081;DHT22;2055;50.074;8.436;2024-02-23T13:23:02;9.30;99.90
4081;DHT22;2055;50.074;8.436;2024-02-23T13:25:28;9.20;99.90
4081;DHT22;2055;50.074;8.436;2024-02-23T13:27:54;10.30;99.90
4081;DHT22;2055;50.074;8.436;2024-02-23T13:30:19;9.10;99.90
4081;DHT22;2055;50.074;8.436;2024-02-23T13:32:45;9.10;99.90
4081;DHT22;2055;50.074;8.436;2024-02-23T13:35:11;9.10;99.90
4081;DHT22;2055;50.074;8.436;2024-02-23T13:37:36;9.10;99.90
4081;DHT22;2055;50.074;8.436;2024-02-23T13:40:02;9.30;99.90
4081;DHT22;2055;50.074;8.436;2024-02-23T13:42:31;9.40;99.90
4081;DHT22;2055;50.074;8.436;2024-02-23T13:44:56;9.50;99.90
4081;DHT22;2055;50.074;8.436;2024-02-23T13:47:22;9.50;99.90
4081;DHT22;2055;50.074;8.436;2024-02-23T13:49:47;9.50;99.90
4081;DHT22;2055;50.074;8.436;2024-02-23T13:52:13;9.30;99.90
4081;DHT22;2055;50.074;8.436;2024-02-23T13:54:39;9.20;99.90
4081;DHT22;2055;50.074;8.436;2024-02-23T13:57:04;9.20;99.90
4081;DHT22;2055;50.074;8.436;2024-02-23T13:59:30;9.40;99.90
4081;DHT22;2055;50.074;8.436;2024-02-23T14:01:55;9.60;99.90
4081;DHT22;2055;50.074;8.436;2024-02-23T14:04:21;9.70;99.90
4081;DHT22;2055;50.074;8.436;2024-02-23T14:06:47;9.70;99.90
4081;DHT22;2055;50.074;8.436;2024-02-23T14:09:12;9.70;99.90
4081;DHT22;2055;50.074;8.436;2024-02-23T14:11:38;9.80;99.90
4081;DHT22;2055;50.074;8.436;2024-02-23T14:14:05;9.90;99.90
4081;DHT22;2055;50.074;8.436;2024-02-23T14:16:31;9.80;99.90
4081;DHT22;2055;50.074;8.436;2024-02-23T14:18:56;9.60;99.90
4081;DHT22;2055;50.074;8.436;2024-02-23T14:21:22;9.80;99.90
4081;DHT22;2055;50.074;8.436;2024-02-23T14:23:50;9.80;99.90
4081;DHT22;2055;50.074;8.436;2024-02-23T14:26:16;9.90;99.90
4081;DHT22;2055;50.074;8.436;2024-02-23T14:28:41;10.00;99.90
4081;DHT22;2055;50.074;8.436;2024-02-23T14:31:07;10.00;99.90
4081;DHT22;2055;50.074;8.436;2024-02-23T14:33:32;10.10;99.90
4081;DHT22;2055;50.074;8.436;2024-02-23T14:35:58;10.20;99.90
4081;DHT22;2055;50.074;8.436;2024-02-23T14:38:24;10.30;99.90
4081;DHT22;2055;50.074;8.436;2024-02-23T14:40:50;11.30;99.90
4081;DHT22;2055;50.074;8.436;2024-02-23T14:43:16;11.10;99.90
4081;DHT22;2055;50.074;8.436;2024-02-23T14:45:41;11.60;99.90
4081;DHT22;2055;50.074;8.436;2024-02-23T14:48:07;12.10;99.90
4081;DHT22;2055;50.074;8.436;2024-02-23T14:50:33;11.40;99.90
4081;DHT22;2055;50.074;8.436;2024-02-23T14:52:59;11.40;99.90
4081;DHT22;2055;50.074;8.436;2024-02-23T14:55:25;10.80;99.90
4081;DHT22;2055;50.074;8.436;2024-02-23T14:57:50;10.50;99.90
4081;DHT22;2055;50.074;8.436;2024-02-23T15:00:16;11.90;99.90
4081;DHT22;2055;50.074;8.436;2024-02-23T15:02:42;10.00;99.90
4081;DHT22;2055;50.074;8.436;2024-02-23T15:05:07;9.90;99.90
4081;DHT22;2055;50.074;8.436;2024-02-23T15:07:34;10.00;99.90
4081;DHT22;2055;50.074;8.436;2024-02-23T15:10:01;10.10;99.90
4081;DHT22;2055;50.074;8.436;2024-02-23T15:12:31;10.10;99.90
4081;DHT22;2055;50.074;8.436;2024-02-23T15:14:57;10.00;99.90
4081;DHT22;2055;50.074;8.436;2024-02-23T15:17:22;13.20;99.90
4081;DHT22;2055;50.074;8.436;2024-02-23T15:19:48;10.00;99.90
4081;DHT22;2055;50.074;8.436;2024-02-23T15:22:13;10.00;99.90
4081;DHT22;2055;50.074;8.436;2024-02-23T15:24:40;10.10;99.90
4081;DHT22;2055;50.074;8.436;2024-02-23T15:27:08;9.90;99.90
4081;DHT22;2055;50.074;8.436;2024-02-23T15:29:34;11.60;99.90
4081;DHT22;2055;50.074;8.436;2024-02-23T15:32:00;13.10;99.90
4081;DHT22;2055;50.074;8.436;2024-02-23T15:34:26;12.40;99.90
4081;DHT22;2055;50.074;8.436;2024-02-23T15:36:51;13.00;99.90
4081;DHT22;2055;50.074;8.436;2024-02-23T15:39:17;12.20;99.90
4081;DHT22;2055;50.074;8.436;2024-02-23T15:41:42;10.90;99.90
4081;DHT22;2055;50.074;8.436;2024-02-23T15:44:08;10.20;99.90
4081;DHT22;2055;50.074;8.436;2024-02-23T15:46:33;9.60;99.90
4081;DHT22;2055;50.074;8.436;2024-02-23T15:48:59;9.20;99.90
4081;DHT22;2055;50.074;8.436;2024-02-23T15:51:25;9.00;99.90
4081;DHT22;2055;50.074;8.436;2024-02-23T15:53:51;8.80;99.90
4081;DHT22;2055;50.074;8.436;2024-02-23T15:56:16;8.50;99.90
4081;DHT22;2055;50.074;8.436;2024-02-23T15:58:42;8.10;99.90
4081;DHT22;2055;50.074;8.436;2024-02-23T16:01:07;11.10;99.90
4081;DHT22;2055;50.074;8.436;2024-02-23T16:03:33;7.70;99.90
4081;DHT22;2055;50.074;8.436;2024-02-23T16:05:58;7.70;99.90
4081;DHT22;2055;50.074;8.436;2024-02-23T16:08:45;7.60;99.90
4081;DHT22;2055;50.074;8.436;2024-02-23T16:11:12;7.50;99.90
4081;DHT22;2055;50.074;8.436;2024-02-23T16:13:38;7.50;99.90